sensor_id;sensor_type;location;lat;lon;timestamp;temperature;humidity
65419;DHT22;52027;50.658;14.004;2022-10-16T00:00:31;21.78;43.44
65419;DHT22;52027;50.658;14.004;2022-10-16T00:02:56;21.76;43.50
65419;DHT22;52027;50.658;14.004;2022-10-16T00:05:22;21.76;43.46
65419;DHT22;52027;50.658;14.004;2022-10-16T00:07:47;21.73;43.50
65419;DHT22;52027;50.658;14.004;2022-10-16T00:10:12;21.75;43.50
65419;DHT22;52027;50.658;14.004;2022-10-16T00:12:38;21.73;43.44
65419;DHT22;52027;50.658;14.004;2022-10-16T00:15:04;21.76;43.50
65419;DHT22;52027;50.658;14.004;2022-10-16T00:17:29;21.76;43.50
65419;DHT22;52027;50.658;14.004;2022-10-16T00:19:54;21.76;43.52
65419;DHT22;52027;50.658;14.004;2022-10-16T00:22:20;21.76;43.49
65419;DHT22;52027;50.658;14.004;2022-10-16T00:24:45;21.78;43.49
65419;DHT22;52027;50.658;14.004;2022-10-16T00:27:10;21.78;43.43
65419;DHT22;52027;50.658;14.004;2022-10-16T00:29:36;21.78;43.37
65419;DHT22;52027;50.658;14.004;2022-10-16T00:32:01;21.79;43.46
65419;DHT22;52027;50.658;14.004;2022-10-16T00:34:26;21.79;43.49
65419;DHT22;52027;50.658;14.004;2022-10-16T00:36:52;21.78;43.51
65419;DHT22;52027;50.658;14.004;2022-10-16T00:39:17;21.78;43.47
65419;DHT22;52027;50.658;14.004;2022-10-16T00:41:42;21.79;43.48
65419;DHT22;52027;50.658;14.004;2022-10-16T00:44:43;21.78;43.39
65419;DHT22;52027;50.658;14.004;2022-10-16T00:47:11;21.79;43.43
65419;DHT22;52027;50.658;14.004;2022-10-16T00:49:38;21.78;43.46
65419;DHT22;52027;50.658;14.004;2022-10-16T00:52:03;21.76;43.46
65419;DHT22;52027;50.658;14.004;2022-10-16T00:54:31;21.76;43.47
65419;DHT22;52027;50.658;14.004;2022-10-16T00:56:59;21.79;43.50
65419;DHT22;52027;50.658;14.004;2022-10-16T00:59:31;21.78;43.46
65419;DHT22;52027;50.658;14.004;2022-10-16T01:01:57;21.79;43.52
65419;DHT22;52027;50.658;14.004;2022-10-16T01:04:25;21.80;43.45
65419;DHT22;52027;50.658;14.004;2022-10-16T01:09:51;21.79;43.49
65419;DHT22;52027;50.658;14.004;2022-10-16T01:15:10;21.78;43.41
65419;DHT22;52027;50.658;14.004;2022-10-16T01:17:41;21.79;43.43
65419;DHT22;52027;50.658;14.004;2022-10-16T01:23:15;21.79;43.41
65419;DHT22;52027;50.658;14.004;2022-10-16T01:31:11;21.76;43.39
65419;DHT22;52027;50.658;14.004;2022-10-16T01:33:46;21.79;43.39
65419;DHT22;52027;50.658;14.004;2022-10-16T01:36:15;21.78;43.37
65419;DHT22;52027;50.658;14.004;2022-10-16T01:38:43;21.76;43.46
65419;DHT22;52027;50.658;14.004;2022-10-16T01:41:17;21.79;43.47
65419;DHT22;52027;50.658;14.004;2022-10-16T01:43:48;21.79;43.41
65419;DHT22;52027;50.658;14.004;2022-10-16T01:46:16;21.78;43.46
65419;DHT22;52027;50.658;14.004;2022-10-16T01:48:43;21.76;43.42
65419;DHT22;52027;50.658;14.004;2022-10-16T01:51:11;21.76;43.38
65419;DHT22;52027;50.658;14.004;2022-10-16T01:53:39;21.78;43.42
65419;DHT22;52027;50.658;14.004;2022-10-16T01:56:08;21.79;43.44
65419;DHT22;52027;50.658;14.004;2022-10-16T01:58:37;21.75;43.43
65419;DHT22;52027;50.658;14.004;2022-10-16T02:01:07;21.75;43.44
65419;DHT22;52027;50.658;14.004;2022-10-16T02:03:34;21.75;43.44
65419;DHT22;52027;50.658;14.004;2022-10-16T02:06:01;21.75;43.40
65419;DHT22;52027;50.658;14.004;2022-10-16T02:08:28;21.76;43.39
65419;DHT22;52027;50.658;14.004;2022-10-16T02:10:57;21.76;43.44
65419;DHT22;52027;50.658;14.004;2022-10-16T02:13:27;21.73;43.42
65419;DHT22;52027;50.658;14.004;2022-10-16T02:15:54;21.73;43.42
65419;DHT22;52027;50.658;14.004;2022-10-16T02:18:19;21.76;43.49
65419;DHT22;52027;50.658;14.004;2022-10-16T02:20:55;21.73;43.42
65419;DHT22;52027;50.658;14.004;2022-10-16T02:23:40;21.73;43.49
65419;DHT22;52027;50.658;14.004;2022-10-16T02:26:13;21.72;43.47
65419;DHT22;52027;50.658;14.004;2022-10-16T02:28:45;21.72;43.53
65419;DHT22;52027;50.658;14.004;2022-10-16T02:31:13;21.75;43.49
65419;DHT22;52027;50.658;14.004;2022-10-16T02:33:42;21.72;43.51
65419;DHT22;52027;50.658;14.004;2022-10-16T02:36:08;21.75;43.48
65419;DHT22;52027;50.658;14.004;2022-10-16T02:38:34;21.71;43.49
65419;DHT22;52027;50.658;14.004;2022-10-16T02:41:00;21.67;43.49
65419;DHT22;52027;50.658;14.004;2022-10-16T02:43:26;21.72;43.48
65419;DHT22;52027;50.658;14.004;2022-10-16T02:45:51;21.72;43.58
65419;DHT22;52027;50.658;14.004;2022-10-16T02:48:17;21.71;43.47
65419;DHT22;52027;50.658;14.004;2022-10-16T02:50:42;21.72;43.56
65419;DHT22;52027;50.658;14.004;2022-10-16T02:53:07;21.69;43.54
65419;DHT22;52027;50.658;14.004;2022-10-16T02:55:33;21.71;43.49
65419;DHT22;52027;50.658;14.004;2022-10-16T02:57:58;21.67;43.52
65419;DHT22;52027;50.658;14.004;2022-10-16T03:00:23;21.67;43.56
65419;DHT22;52027;50.658;14.004;2022-10-16T03:02:49;21.67;43.54
65419;DHT22;52027;50.658;14.004;2022-10-16T03:05:14;21.67;43.56
65419;DHT22;52027;50.658;14.004;2022-10-16T03:07:40;21.69;43.55
65419;DHT22;52027;50.658;14.004;2022-10-16T03:10:06;21.67;43.59
65419;DHT22;52027;50.658;14.004;2022-10-16T03:12:31;21.67;43.57
65419;DHT22;52027;50.658;14.004;2022-10-16T03:14:57;21.66;43.57
65419;DHT22;52027;50.658;14.004;2022-10-16T03:17:23;21.67;43.57
65419;DHT22;52027;50.658;14.004;2022-10-16T03:19:49;21.67;43.59
65419;DHT22;52027;50.658;14.004;2022-10-16T03:22:15;21.66;43.58
65419;DHT22;52027;50.658;14.004;2022-10-16T03:24:40;21.66;43.66
65419;DHT22;52027;50.658;14.004;2022-10-16T03:27:05;21.65;43.66
65419;DHT22;52027;50.658;14.004;2022-10-16T03:29:31;21.63;43.63
65419;DHT22;52027;50.658;14.004;2022-10-16T03:31:57;21.66;43.71
65419;DHT22;52027;50.658;14.004;2022-10-16T03:34:23;21.66;43.59
65419;DHT22;52027;50.658;14.004;2022-10-16T03:36:49;21.63;43.58
65419;DHT22;52027;50.658;14.004;2022-10-16T03:39:15;21.63;43.55
65419;DHT22;52027;50.658;14.004;2022-10-16T03:41:40;21.63;43.63
65419;DHT22;52027;50.658;14.004;2022-10-16T03:44:05;21.65;43.67
65419;DHT22;52027;50.658;14.004;2022-10-16T03:46:31;21.63;43.60
65419;DHT22;52027;50.658;14.004;2022-10-16T03:48:56;21.62;43.66
65419;DHT22;52027;50.658;14.004;2022-10-16T03:51:21;21.61;43.62
65419;DHT22;52027;50.658;14.004;2022-10-16T03:53:47;21.62;43.64
65419;DHT22;52027;50.658;14.004;2022-10-16T03:56:12;21.62;43.62
65419;DHT22;52027;50.658;14.004;2022-10-16T03:58:37;21.61;43.66
65419;DHT22;52027;50.658;14.004;2022-10-16T04:01:03;21.65;43.63
65419;DHT22;52027;50.658;14.004;2022-10-16T04:03:28;21.61;43.68
65419;DHT22;52027;50.658;14.004;2022-10-16T04:05:54;21.62;43.61
65419;DHT22;52027;50.658;14.004;2022-10-16T04:08:19;21.59;43.64
65419;DHT22;52027;50.658;14.004;2022-10-16T04:10:45;21.61;43.64
65419;DHT22;52027;50.658;14.004;2022-10-16T04:13:11;21.61;43.67
65419;DHT22;52027;50.658;14.004;2022-10-16T04:15:37;21.61;43.68
65419;DHT22;52027;50.658;14.004;2022-10-16T04:18:02;21.59;43.63
65419;DHT22;52027;50.658;14.004;2022-10-16T04:20:28;21.59;43.69
65419;DHT22;52027;50.658;14.004;2022-10-16T04:22:53;21.61;43.65
65419;DHT22;52027;50.658;14.004;2022-10-16T04:25:18;21.59;43.70
65419;DHT22;52027;50.658;14.004;2022-10-16T04:27:44;21.56;43.68
65419;DHT22;52027;50.658;14.004;2022-10-16T04:30:09;21.59;43.64
65419;DHT22;52027;50.658;14.004;2022-10-16T04:32:35;21.59;43.65
65419;DHT22;52027;50.658;14.004;2022-10-16T04:35:00;21.59;43.71
65419;DHT22;52027;50.658;14.004;2022-10-16T04:37:26;21.61;43.66
65419;DHT22;52027;50.658;14.004;2022-10-16T04:39:53;21.59;43.65
65419;DHT22;52027;50.658;14.004;2022-10-16T04:42:18;21.56;43.69
65419;DHT22;52027;50.658;14.004;2022-10-16T04:44:44;21.59;43.75
65419;DHT22;52027;50.658;14.004;2022-10-16T04:47:09;21.58;43.66
65419;DHT22;52027;50.658;14.004;2022-10-16T04:49:35;21.58;43.71
65419;DHT22;52027;50.658;14.004;2022-10-16T04:52:00;21.59;43.68
65419;DHT22;52027;50.658;14.004;2022-10-16T04:54:25;21.56;43.69
65419;DHT22;52027;50.658;14.004;2022-10-16T04:56:51;21.59;43.69
65419;DHT22;52027;50.658;14.004;2022-10-16T04:59:18;21.59;43.73
65419;DHT22;52027;50.658;14.004;2022-10-16T05:01:44;21.59;43.73
65419;DHT22;52027;50.658;14.004;2022-10-16T05:04:10;21.56;43.75
65419;DHT22;52027;50.658;14.004;2022-10-16T05:06:35;21.56;43.73
65419;DHT22;52027;50.658;14.004;2022-10-16T05:09:01;21.56;43.73
65419;DHT22;52027;50.658;14.004;2022-10-16T05:11:26;21.59;43.67
65419;DHT22;52027;50.658;14.004;2022-10-16T05:13:51;21.55;43.72
65419;DHT22;52027;50.658;14.004;2022-10-16T05:16:17;21.56;43.73
65419;DHT22;52027;50.658;14.004;2022-10-16T05:18:42;21.56;43.73
65419;DHT22;52027;50.658;14.004;2022-10-16T05:21:07;21.56;43.71
65419;DHT22;52027;50.658;14.004;2022-10-16T05:23:33;21.58;43.70
65419;DHT22;52027;50.658;14.004;2022-10-16T05:25:59;21.56;43.77
65419;DHT22;52027;50.658;14.004;2022-10-16T05:28:28;21.56;43.69
65419;DHT22;52027;50.658;14.004;2022-10-16T05:30:55;21.56;43.71
65419;DHT22;52027;50.658;14.004;2022-10-16T05:33:21;21.58;43.74
65419;DHT22;52027;50.658;14.004;2022-10-16T05:35:47;21.56;43.73
65419;DHT22;52027;50.658;14.004;2022-10-16T05:38:12;21.56;43.73
65419;DHT22;52027;50.658;14.004;2022-10-16T05:40:38;21.56;43.71
65419;DHT22;52027;50.658;14.004;2022-10-16T05:43:03;21.58;43.76
65419;DHT22;52027;50.658;14.004;2022-10-16T05:45:28;21.55;43.70
65419;DHT22;52027;50.658;14.004;2022-10-16T05:47:54;21.55;43.77
65419;DHT22;52027;50.658;14.004;2022-10-16T05:50:19;21.52;43.74
65419;DHT22;52027;50.658;14.004;2022-10-16T05:52:44;21.53;43.74
65419;DHT22;52027;50.658;14.004;2022-10-16T05:55:10;21.55;43.77
65419;DHT22;52027;50.658;14.004;2022-10-16T05:57:35;21.53;43.70
65419;DHT22;52027;50.658;14.004;2022-10-16T06:00:00;21.55;43.75
65419;DHT22;52027;50.658;14.004;2022-10-16T06:02:26;21.56;43.74
65419;DHT22;52027;50.658;14.004;2022-10-16T06:04:51;21.53;43.78
65419;DHT22;52027;50.658;14.004;2022-10-16T06:07:19;21.55;43.73
65419;DHT22;52027;50.658;14.004;2022-10-16T06:09:44;21.58;43.75
65419;DHT22;52027;50.658;14.004;2022-10-16T06:12:12;21.55;43.71
65419;DHT22;52027;50.658;14.004;2022-10-16T06:14:37;21.55;43.80
65419;DHT22;52027;50.658;14.004;2022-10-16T06:17:03;21.55;43.70
65419;DHT22;52027;50.658;14.004;2022-10-16T06:19:28;21.55;43.76
65419;DHT22;52027;50.658;14.004;2022-10-16T06:21:53;21.53;43.78
65419;DHT22;52027;50.658;14.004;2022-10-16T06:24:19;21.55;43.78
65419;DHT22;52027;50.658;14.004;2022-10-16T06:26:44;21.58;43.75
65419;DHT22;52027;50.658;14.004;2022-10-16T06:29:09;21.55;43.76
65419;DHT22;52027;50.658;14.004;2022-10-16T06:31:35;21.56;43.76
65419;DHT22;52027;50.658;14.004;2022-10-16T06:34:00;21.56;43.78
65419;DHT22;52027;50.658;14.004;2022-10-16T06:36:26;21.56;43.78
65419;DHT22;52027;50.658;14.004;2022-10-16T06:38:52;21.58;43.77
65419;DHT22;52027;50.658;14.004;2022-10-16T06:41:19;21.56;43.71
65419;DHT22;52027;50.658;14.004;2022-10-16T06:43:46;21.58;43.80
65419;DHT22;52027;50.658;14.004;2022-10-16T06:46:14;21.58;43.75
65419;DHT22;52027;50.658;14.004;2022-10-16T06:48:39;21.58;43.75
65419;DHT22;52027;50.658;14.004;2022-10-16T06:51:19;21.58;43.77
65419;DHT22;52027;50.658;14.004;2022-10-16T06:53:46;21.59;43.75
65419;DHT22;52027;50.658;14.004;2022-10-16T06:56:25;21.58;43.72
65419;DHT22;52027;50.658;14.004;2022-10-16T06:58:51;21.59;43.71
65419;DHT22;52027;50.658;14.004;2022-10-16T07:01:18;21.61;43.75
65419;DHT22;52027;50.658;14.004;2022-10-16T07:03:44;21.62;43.72
65419;DHT22;52027;50.658;14.004;2022-10-16T07:06:13;21.61;43.71
65419;DHT22;52027;50.658;14.004;2022-10-16T07:08:40;21.62;43.72
65419;DHT22;52027;50.658;14.004;2022-10-16T07:11:08;21.62;43.72
65419;DHT22;52027;50.658;14.004;2022-10-16T07:13:38;21.63;43.70
65419;DHT22;52027;50.658;14.004;2022-10-16T07:16:15;21.61;43.69
65419;DHT22;52027;50.658;14.004;2022-10-16T07:18:41;21.63;43.67
65419;DHT22;52027;50.658;14.004;2022-10-16T07:21:19;21.65;43.71
65419;DHT22;52027;50.658;14.004;2022-10-16T07:23:49;21.66;43.67
65419;DHT22;52027;50.658;14.004;2022-10-16T07:26:15;21.66;43.63
65419;DHT22;52027;50.658;14.004;2022-10-16T07:28:42;21.65;43.66
65419;DHT22;52027;50.658;14.004;2022-10-16T07:31:11;21.66;43.64
65419;DHT22;52027;50.658;14.004;2022-10-16T07:33:39;21.67;43.63
65419;DHT22;52027;50.658;14.004;2022-10-16T07:36:05;21.66;43.65
65419;DHT22;52027;50.658;14.004;2022-10-16T07:38:31;21.66;43.67
65419;DHT22;52027;50.658;14.004;2022-10-16T07:40:58;21.65;43.61
65419;DHT22;52027;50.658;14.004;2022-10-16T07:43:24;21.67;43.65
65419;DHT22;52027;50.658;14.004;2022-10-16T07:45:50;21.66;43.67
65419;DHT22;52027;50.658;14.004;2022-10-16T07:48:16;21.66;43.62
65419;DHT22;52027;50.658;14.004;2022-10-16T07:50:42;21.65;43.61
65419;DHT22;52027;50.658;14.004;2022-10-16T07:53:08;21.65;43.63
65419;DHT22;52027;50.658;14.004;2022-10-16T07:55:33;21.65;43.61
65419;DHT22;52027;50.658;14.004;2022-10-16T07:57:59;21.69;43.65
65419;DHT22;52027;50.658;14.004;2022-10-16T08:00:24;21.67;43.59
65419;DHT22;52027;50.658;14.004;2022-10-16T08:02:49;21.69;43.60
65419;DHT22;52027;50.658;14.004;2022-10-16T08:05:15;21.72;43.56
65419;DHT22;52027;50.658;14.004;2022-10-16T08:07:40;21.75;43.56
65419;DHT22;52027;50.658;14.004;2022-10-16T08:10:05;21.79;43.46
65419;DHT22;52027;50.658;14.004;2022-10-16T08:12:31;21.82;43.40
65419;DHT22;52027;50.658;14.004;2022-10-16T08:14:56;21.85;43.36
65419;DHT22;52027;50.658;14.004;2022-10-16T08:17:21;21.89;43.30
65419;DHT22;52027;50.658;14.004;2022-10-16T08:19:47;21.92;43.24
65419;DHT22;52027;50.658;14.004;2022-10-16T08:22:13;21.96;43.13
65419;DHT22;52027;50.658;14.004;2022-10-16T08:24:39;22.00;43.05
65419;DHT22;52027;50.658;14.004;2022-10-16T08:27:04;21.99;43.05
65419;DHT22;52027;50.658;14.004;2022-10-16T08:29:30;22.01;43.07
65419;DHT22;52027;50.658;14.004;2022-10-16T08:31:55;22.03;43.02
65419;DHT22;52027;50.658;14.004;2022-10-16T08:34:21;22.03;42.97
65419;DHT22;52027;50.658;14.004;2022-10-16T08:36:46;22.07;42.96
65419;DHT22;52027;50.658;14.004;2022-10-16T08:39:11;22.04;42.99
65419;DHT22;52027;50.658;14.004;2022-10-16T08:41:48;22.06;42.97
65419;DHT22;52027;50.658;14.004;2022-10-16T08:46:56;22.07;42.97
65419;DHT22;52027;50.658;14.004;2022-10-16T08:49:25;22.04;43.00
65419;DHT22;52027;50.658;14.004;2022-10-16T08:51:51;22.06;43.00
65419;DHT22;52027;50.658;14.004;2022-10-16T08:54:31;22.04;42.99
65419;DHT22;52027;50.658;14.004;2022-10-16T08:57:11;22.06;43.00
65419;DHT22;52027;50.658;14.004;2022-10-16T08:59:37;22.01;43.04
65419;DHT22;52027;50.658;14.004;2022-10-16T09:02:21;22.03;43.05
65419;DHT22;52027;50.658;14.004;2022-10-16T09:04:54;22.04;43.02
65419;DHT22;52027;50.658;14.004;2022-10-16T09:10:22;22.04;43.03
65419;DHT22;52027;50.658;14.004;2022-10-16T09:12:58;22.03;43.06
65419;DHT22;52027;50.658;14.004;2022-10-16T09:15:35;22.01;43.04
65419;DHT22;52027;50.658;14.004;2022-10-16T09:23:38;22.03;42.98
65419;DHT22;52027;50.658;14.004;2022-10-16T09:26:05;22.03;43.07
65419;DHT22;52027;50.658;14.004;2022-10-16T09:28:34;22.00;43.06
65419;DHT22;52027;50.658;14.004;2022-10-16T09:31:00;22.01;43.02
65419;DHT22;52027;50.658;14.004;2022-10-16T09:33:29;22.00;43.09
65419;DHT22;52027;50.658;14.004;2022-10-16T09:35:56;22.01;43.06
65419;DHT22;52027;50.658;14.004;2022-10-16T09:38:29;22.03;43.00
65419;DHT22;52027;50.658;14.004;2022-10-16T09:40:56;22.04;43.07
65419;DHT22;52027;50.658;14.004;2022-10-16T09:43:30;22.01;43.07
65419;DHT22;52027;50.658;14.004;2022-10-16T09:46:05;22.01;43.03
65419;DHT22;52027;50.658;14.004;2022-10-16T09:48:44;21.99;43.10
65419;DHT22;52027;50.658;14.004;2022-10-16T09:51:20;22.01;43.04
65419;DHT22;52027;50.658;14.004;2022-10-16T09:53:47;22.01;43.06
65419;DHT22;52027;50.658;14.004;2022-10-16T09:56:31;22.03;43.06
65419;DHT22;52027;50.658;14.004;2022-10-16T10:04:04;22.09;43.02
65419;DHT22;52027;50.658;14.004;2022-10-16T10:06:33;22.07;43.03
65419;DHT22;52027;50.658;14.004;2022-10-16T10:09:04;22.07;43.04
65419;DHT22;52027;50.658;14.004;2022-10-16T10:16:52;22.14;42.93
65419;DHT22;52027;50.658;14.004;2022-10-16T10:19:22;22.16;42.94
65419;DHT22;52027;50.658;14.004;2022-10-16T10:21:49;22.17;42.88
65419;DHT22;52027;50.658;14.004;2022-10-16T10:24:17;22.17;42.85
65419;DHT22;52027;50.658;14.004;2022-10-16T10:26:57;22.20;42.82
65419;DHT22;52027;50.658;14.004;2022-10-16T10:30:00;22.18;42.82
65419;DHT22;52027;50.658;14.004;2022-10-16T10:32:30;22.18;42.81
65419;DHT22;52027;50.658;14.004;2022-10-16T10:35:16;22.18;42.80
65419;DHT22;52027;50.658;14.004;2022-10-16T10:40:34;22.20;42.82
65419;DHT22;52027;50.658;14.004;2022-10-16T10:54:13;22.22;42.77
65419;DHT22;52027;50.658;14.004;2022-10-16T10:56:44;22.17;42.80
65419;DHT22;52027;50.658;14.004;2022-10-16T11:02:13;22.20;42.83
65419;DHT22;52027;50.658;14.004;2022-10-16T11:04:56;22.18;42.82
65419;DHT22;52027;50.658;14.004;2022-10-16T11:07:31;22.20;42.85
65419;DHT22;52027;50.658;14.004;2022-10-16T11:10:02;22.18;42.85
65419;DHT22;52027;50.658;14.004;2022-10-16T11:12:39;22.17;42.82
65419;DHT22;52027;50.658;14.004;2022-10-16T11:15:16;22.21;42.83
65419;DHT22;52027;50.658;14.004;2022-10-16T11:17:52;22.18;42.80
65419;DHT22;52027;50.658;14.004;2022-10-16T11:20:30;22.17;42.88
65419;DHT22;52027;50.658;14.004;2022-10-16T11:23:05;22.18;42.82
65419;DHT22;52027;50.658;14.004;2022-10-16T11:25:33;22.20;42.85
65419;DHT22;52027;50.658;14.004;2022-10-16T11:28:11;22.18;42.86
65419;DHT22;52027;50.658;14.004;2022-10-16T11:30:47;22.18;42.92
65419;DHT22;52027;50.658;14.004;2022-10-16T11:36:03;22.17;42.92
65419;DHT22;52027;50.658;14.004;2022-10-16T11:41:32;22.20;42.86
65419;DHT22;52027;50.658;14.004;2022-10-16T11:46:32;22.21;42.90
65419;DHT22;52027;50.658;14.004;2022-10-16T11:49:13;22.18;42.89
65419;DHT22;52027;50.658;14.004;2022-10-16T11:51:42;22.21;42.89
65419;DHT22;52027;50.658;14.004;2022-10-16T11:54:22;22.21;42.88
65419;DHT22;52027;50.658;14.004;2022-10-16T11:56:52;22.22;42.91
65419;DHT22;52027;50.658;14.004;2022-10-16T11:59:41;22.22;42.87
65419;DHT22;52027;50.658;14.004;2022-10-16T12:05:19;22.24;42.91
65419;DHT22;52027;50.658;14.004;2022-10-16T12:10:24;22.22;42.90
65419;DHT22;52027;50.658;14.004;2022-10-16T12:12:51;22.24;42.85
65419;DHT22;52027;50.658;14.004;2022-10-16T12:15:31;22.22;42.79
65419;DHT22;52027;50.658;14.004;2022-10-16T12:17:57;22.25;42.90
65419;DHT22;52027;50.658;14.004;2022-10-16T12:20:30;22.25;42.84
65419;DHT22;52027;50.658;14.004;2022-10-16T12:22:59;22.20;42.89
65419;DHT22;52027;50.658;14.004;2022-10-16T12:28:00;22.20;42.85
65419;DHT22;52027;50.658;14.004;2022-10-16T12:30:27;22.21;42.88
65419;DHT22;52027;50.658;14.004;2022-10-16T12:33:02;22.20;42.83
65419;DHT22;52027;50.658;14.004;2022-10-16T12:35:33;22.21;42.86
65419;DHT22;52027;50.658;14.004;2022-10-16T12:38:44;22.20;42.90
65419;DHT22;52027;50.658;14.004;2022-10-16T12:41:10;22.20;42.86
65419;DHT22;52027;50.658;14.004;2022-10-16T12:43:55;22.21;42.87
65419;DHT22;52027;50.658;14.004;2022-10-16T12:46:36;22.18;42.99
65419;DHT22;52027;50.658;14.004;2022-10-16T12:51:36;22.20;42.99
65419;DHT22;52027;50.658;14.004;2022-10-16T12:54:14;22.18;42.92
65419;DHT22;52027;50.658;14.004;2022-10-16T13:09:45;22.20;42.85
65419;DHT22;52027;50.658;14.004;2022-10-16T13:12:42;22.20;42.92
65419;DHT22;52027;50.658;14.004;2022-10-16T13:18:16;22.18;42.95
65419;DHT22;52027;50.658;14.004;2022-10-16T13:26:26;22.18;42.88
65419;DHT22;52027;50.658;14.004;2022-10-16T13:28:58;22.21;42.87
65419;DHT22;52027;50.658;14.004;2022-10-16T13:31:24;22.20;42.96
65419;DHT22;52027;50.658;14.004;2022-10-16T13:33:52;22.18;42.91
65419;DHT22;52027;50.658;14.004;2022-10-16T13:36:24;22.21;42.88
65419;DHT22;52027;50.658;14.004;2022-10-16T13:41:31;22.24;42.82
65419;DHT22;52027;50.658;14.004;2022-10-16T13:43:56;22.25;42.84
65419;DHT22;52027;50.658;14.004;2022-10-16T13:46:23;22.27;42.81
65419;DHT22;52027;50.658;14.004;2022-10-16T13:49:02;22.30;42.77
65419;DHT22;52027;50.658;14.004;2022-10-16T13:51:30;22.30;42.83
65419;DHT22;52027;50.658;14.004;2022-10-16T13:53:56;22.31;42.74
65419;DHT22;52027;50.658;14.004;2022-10-16T13:56:25;22.31;42.79
65419;DHT22;52027;50.658;14.004;2022-10-16T13:59:02;22.31;42.74
65419;DHT22;52027;50.658;14.004;2022-10-16T14:01:30;22.31;42.72
65419;DHT22;52027;50.658;14.004;2022-10-16T14:04:04;22.31;42.72
65419;DHT22;52027;50.658;14.004;2022-10-16T14:06:30;22.30;42.72
65419;DHT22;52027;50.658;14.004;2022-10-16T14:11:49;22.30;42.72
65419;DHT22;52027;50.658;14.004;2022-10-16T14:14:16;22.30;42.70
65419;DHT22;52027;50.658;14.004;2022-10-16T14:16:43;22.27;42.71
65419;DHT22;52027;50.658;14.004;2022-10-16T14:19:20;22.28;42.71
65419;DHT22;52027;50.658;14.004;2022-10-16T14:21:47;22.28;42.66
65419;DHT22;52027;50.658;14.004;2022-10-16T14:24:13;22.27;42.71
65419;DHT22;52027;50.658;14.004;2022-10-16T14:26:46;22.25;42.71
65419;DHT22;52027;50.658;14.004;2022-10-16T14:29:17;22.28;42.73
65419;DHT22;52027;50.658;14.004;2022-10-16T14:31:57;22.27;42.75
65419;DHT22;52027;50.658;14.004;2022-10-16T14:34:24;22.27;42.68
65419;DHT22;52027;50.658;14.004;2022-10-16T14:36:52;22.28;42.70
65419;DHT22;52027;50.658;14.004;2022-10-16T14:39:19;22.28;42.83
65419;DHT22;52027;50.658;14.004;2022-10-16T14:41:47;22.30;42.75
65419;DHT22;52027;50.658;14.004;2022-10-16T14:44:13;22.30;42.96
65419;DHT22;52027;50.658;14.004;2022-10-16T14:46:41;22.31;42.82
65419;DHT22;52027;50.658;14.004;2022-10-16T14:51:37;22.37;42.78
65419;DHT22;52027;50.658;14.004;2022-10-16T14:54:03;22.40;42.77
65419;DHT22;52027;50.658;14.004;2022-10-16T14:56:30;22.40;42.74
65419;DHT22;52027;50.658;14.004;2022-10-16T14:58:57;22.38;42.67
65419;DHT22;52027;50.658;14.004;2022-10-16T15:01:23;22.40;42.65
65419;DHT22;52027;50.658;14.004;2022-10-16T15:03:48;22.38;42.58
65419;DHT22;52027;50.658;14.004;2022-10-16T15:06:15;22.40;42.68
65419;DHT22;52027;50.658;14.004;2022-10-16T15:08:41;22.41;42.57
65419;DHT22;52027;50.658;14.004;2022-10-16T15:11:15;22.40;42.61
65419;DHT22;52027;50.658;14.004;2022-10-16T15:13:41;22.40;42.58
65419;DHT22;52027;50.658;14.004;2022-10-16T15:16:14;22.37;42.59
65419;DHT22;52027;50.658;14.004;2022-10-16T15:18:40;22.37;42.55
65419;DHT22;52027;50.658;14.004;2022-10-16T15:21:06;22.36;42.55
65419;DHT22;52027;50.658;14.004;2022-10-16T15:23:31;22.33;42.59
65419;DHT22;52027;50.658;14.004;2022-10-16T15:25:56;22.34;42.55
65419;DHT22;52027;50.658;14.004;2022-10-16T15:28:23;22.34;42.63
65419;DHT22;52027;50.658;14.004;2022-10-16T15:30:51;22.33;42.60
65419;DHT22;52027;50.658;14.004;2022-10-16T15:33:19;22.31;42.63
65419;DHT22;52027;50.658;14.004;2022-10-16T15:35:51;22.28;42.66
65419;DHT22;52027;50.658;14.004;2022-10-16T15:38:19;22.31;42.67
65419;DHT22;52027;50.658;14.004;2022-10-16T15:40:46;22.30;42.67
65419;DHT22;52027;50.658;14.004;2022-10-16T15:43:11;22.31;42.73
65419;DHT22;52027;50.658;14.004;2022-10-16T15:45:37;22.28;42.71
65419;DHT22;52027;50.658;14.004;2022-10-16T15:48:02;22.27;42.77
65419;DHT22;52027;50.658;14.004;2022-10-16T15:50:30;22.25;42.77
65419;DHT22;52027;50.658;14.004;2022-10-16T15:52:55;22.25;42.82
65419;DHT22;52027;50.658;14.004;2022-10-16T15:55:20;22.20;42.82
65419;DHT22;52027;50.658;14.004;2022-10-16T15:57:46;22.21;42.79
65419;DHT22;52027;50.658;14.004;2022-10-16T16:00:14;22.22;42.85
65419;DHT22;52027;50.658;14.004;2022-10-16T16:02:43;22.21;42.82
65419;DHT22;52027;50.658;14.004;2022-10-16T16:05:14;22.18;42.86
65419;DHT22;52027;50.658;14.004;2022-10-16T16:07:39;22.20;42.86
65419;DHT22;52027;50.658;14.004;2022-10-16T16:10:07;22.16;42.92
65419;DHT22;52027;50.658;14.004;2022-10-16T16:12:33;22.17;42.92
65419;DHT22;52027;50.658;14.004;2022-10-16T16:14:59;22.14;42.86
65419;DHT22;52027;50.658;14.004;2022-10-16T16:17:24;22.16;42.90
65419;DHT22;52027;50.658;14.004;2022-10-16T16:19:50;22.13;42.95
65419;DHT22;52027;50.658;14.004;2022-10-16T16:22:15;22.11;42.97
65419;DHT22;52027;50.658;14.004;2022-10-16T16:24:41;22.10;42.99
65419;DHT22;52027;50.658;14.004;2022-10-16T16:27:06;22.10;43.00
65419;DHT22;52027;50.658;14.004;2022-10-16T16:29:32;22.09;43.04
65419;DHT22;52027;50.658;14.004;2022-10-16T16:31:59;22.09;43.04
65419;DHT22;52027;50.658;14.004;2022-10-16T16:34:27;22.09;43.03
65419;DHT22;52027;50.658;14.004;2022-10-16T16:36:54;22.04;43.04
65419;DHT22;52027;50.658;14.004;2022-10-16T16:39:19;22.07;43.01
65419;DHT22;52027;50.658;14.004;2022-10-16T16:41:44;22.06;43.09
65419;DHT22;52027;50.658;14.004;2022-10-16T16:44:13;22.06;43.08
65419;DHT22;52027;50.658;14.004;2022-10-16T16:46:39;22.03;43.17
65419;DHT22;52027;50.658;14.004;2022-10-16T16:49:06;22.03;43.13
65419;DHT22;52027;50.658;14.004;2022-10-16T16:51:32;22.03;43.15
65419;DHT22;52027;50.658;14.004;2022-10-16T16:53:58;22.00;43.19
65419;DHT22;52027;50.658;14.004;2022-10-16T16:56:24;22.01;43.13
65419;DHT22;52027;50.658;14.004;2022-10-16T16:58:53;21.99;43.12
65419;DHT22;52027;50.658;14.004;2022-10-16T17:01:19;21.99;43.23
65419;DHT22;52027;50.658;14.004;2022-10-16T17:03:44;21.97;43.23